Aspinwall, PA

1:03 AM EDT on August 24, 2016 (GMT -0400)
W. O'hara Township | | Change Station

Elev 1161 ft 40.52 °N, 79.93 °W | Updated 5 seconds ago

Clear
Clear
65.1 °F
Feels Like 65.1 °F
N
0.0
Wind Variable Wind from SSE
Gusts 0.0 mph

Today
High -- | Low -- °F
--% Chance of Precip.
Yesterday
High -- | Low -- °F
Precip. -- in
Pressure 30.26 in
Visibility 10.0 miles
Clouds Clear
Dew Point 62 °F
Humidity 88%
Rainfall 0.00 in
Snow Depth Not available.
6:39 AM 8:03 PM
Waning Gibbous, 61% visible
METAR KAGC 240453Z 14004KT 10SM CLR 19/16 A3026 RMK AO2 SLP245 T01940156 402670144
Pressure 30.26 in
Visibility 10.0 miles
Clouds Clear
Dew Point 62 °F
Humidity 88%
Rainfall 0.00 in
Snow Depth Not available.
6:39 AM 8:03 PM
Waning Gibbous, 61% visible
METAR KAGC 240453Z 14004KT 10SM CLR 19/16 A3026 RMK AO2 SLP245 T01940156 402670144

10-Day Weather Forecast

Almanac

Astronomy

Aug. 24, 2016 Rise Set
Actual Time
Civil Twilight
Nautical Twilight
Astronomical Twilight
Moon
Length of Visible Light
Length of Day
Tomorrow will be .
, % of the Moon is Illuminated

Today's Extremes

State Highs State Lows

Community

WunderPhotos

Upload Photos

1,934,554 photos uploaded!

WunderBlog® & News

Nearby

Air Quality

  Air Quality AQ Index Pollutant
Not available.

Snow Depth

Station Depth Elevation

Earthquake Activity

City Distance Mag. Time & Date
Minimum magnitude displayed is 2.5.

Coastal Water Temperatures

Place Temperature

Stations

Nearby Weather Stations

Station Location Temp. Windchill Dew Point Humidity Wind Precip. Elev Updated Type
                   

Watches & Warnings

There are currently no watches in effect.